AirNav   Air Wisconsin pilot careers
 
 1460 users online  

CL35 Warner Springs Gliderport
Warner Springs, California, USA

GOING TO WARNER SPRINGS?


FAA INFORMATION EFFECTIVE 04 JANUARY 2018

Location

FAA Identifier: CL35
Lat/Long: 33-17-04.2100N / 116-40-10.7650W
33-17.070167N / 116-40.179417W
33.2845028 / -116.6696569
(estimated)
Elevation: 2880 ft. / 878 m (estimated)
Variation: 13E (1985)
From city: 2 miles E of WARNER SPRINGS, CA
Time zone: UTC -8 (UTC -7 during Daylight Saving Time)
Zip code: 92086

Gliderport Operations

Gliderport use: Private use. Permission required prior to landing
Activation date: 10/1984
Control tower: no
ARTCC: LOS ANGELES CENTER
FSS: SAN DIEGO FLIGHT SERVICE STATION
Attendance: 0900-1700
Wind indicator: yes
Segmented circle: yes
Landing fee: yes

Gliderport Communications

UNICOM: 122.8
WX AWOS-1 at L08 (18 nm E): 126.575 (760-767-3308)
WX ASOS at RNM (19 nm SW): 132.025 (760-789-0736)

Nearby radio navigation aids

VOR radial/distance  VOR name  Freq  Var
JLIr319/9.6JULIAN VORTAC114.0015E
TRMr218/32.8THERMAL VORTAC116.2013E
PSPr186/37.1PALM SPRINGS VORTAC115.5013E
OCNr071/37.6OCEANSIDE VORTAC115.3015E
HDFr125/(39.2)HOMELAND VOR113.4014E

Gliderport Services

Runway Information

Runway 8/26

Dimensions: 3500 x 70 ft. / 1067 x 21 m
Surface: asphalt
RUNWAY 8  RUNWAY 26
Latitude: 33-17.060333N33-17.080000N
Longitude: 116-40.522667W116-39.836167W
Elevation: 2873.0 ft.2914.0 ft.
Traffic pattern: leftleft
Obstructions: none200 ft. hill, 5200 ft. from runway

Gliderport Ownership and Management from official FAA records

Ownership: Privately-owned
Owner: WARNER SPRINGS RANCH RESORT, LLC
31930 HWY 79
WARNER SPRINGS, CA 92086
Phone 760-782-4200
SKY SAILING 31930 HWY 79.
Manager: BRET WILLAT
SKY SAILING 31930 HWY 79
WARNER SPRINGS, CA 92086
Phone 760-782-0404
LEASEE.

Gliderport Operational Statistics

Aircraft based on the field: 80
Single engine airplanes: 10
Gliders airplanes: 70
    

Instrument Procedures

There are no published instrument procedures at CL35.

Some nearby airports with instrument procedures:

L08 - Borrego Valley Airport (18 nm E)
KRNM - Ramona Airport (19 nm SW)
F70 - French Valley Airport (29 nm NW)
L18 - Fallbrook Community Airpark (29 nm W)
KSEE - Gillespie Field Airport (31 nm SW)
 
Loc | Ops | Rwys | IFR | FBO | Links
Com | Nav | Svcs | Stats | Notes


 
Area around CL35 (Warner Springs Gliderport)
 
Road maps at: MapQuest Bing Google
 
Aerial photo
WARNING: Photo may not be current or correct
Aerial photo of CL35 (Warner Springs Gliderport)
Photo by Steve Lupinacci
Photo taken 27-May-2008

Do you have a better or more recent aerial photo of Warner Springs Gliderport that you would like to share? If so, please send us your photo.

 
Sectional chart

 
Airport distance calculator
Flying to Warner Springs Gliderport? Find the distance to fly.

From to CL35

Sunrise and sunset
Times for 16-Jan-2018
 Local
(UTC-8)
 Zulu
(UTC)
Morning civil twilight06:2414:24
Sunrise06:5114:51
Sunset17:0201:02
Evening civil twilight17:2901:29

Current date and time
Zulu (UTC)  16-Jan-2018 20:47:21
Local (UTC-8)  16-Jan-2018 12:47:21
 
METAR
KRNM 
20nm SW 
161953Z 29007KT 10SM CLR 21/06 A3013 RMK AO2 SLP196 T02110056
KF70 
29nm NW 
162035Z AUTO 20003KT 10SM CLR 21/02 A3014 RMK AO1
KL18 
29nm W 
162035Z AUTO 23005KT 10SM CLR 21/04 A3013 RMK AO2
KSEE 
32nm SW 
161947Z 28006KT 10SM SKC 21/06 A3013
KCRQ 
32nm W 
161953Z AUTO VRB05KT 9SM CLR 18/10 A3012 RMK AO2 SLP199 T01830100 $
KTRM 
33nm NE 
161952Z AUTO 00000KT 10SM CLR 23/07 A3009 RMK AO2 SLP192 T02280067
KPSP 
33nm N 
161953Z 15003KT 10SM CLR 22/03 A3012 RMK AO2 SLP198 T02170028
KNFG 
33nm W 
161955Z 20008KT 10SM SCT050 BKN200 21/10 A3012 RMK AO2 SLP198 T02060100
KNKX 
34nm SW 
161955Z 31003KT 10SM FEW150 SCT250 21/11 A3012 RMK AO2 SLP196 T02110111 $
KOKB 
34nm W 
161952Z AUTO 26008KT 8SM CLR 19/12 A3012 RMK AO2 SLP200 T01940117 $
TAF
KCRQ 
32nm W 
161737Z 1618/1718 25007KT P6SM SCT200 FM170600 VRB03KT 1SM BR BKN004 FM171000 VRB03KT P6SM SCT006
KTRM 
33nm NE 
161737Z 1618/1718 VRB06KT P6SM BKN200
KPSP 
33nm N 
161737Z 1618/1718 VRB06KT P6SM BKN200
KNFG 
33nm W 
1609/1709 VRB05KT 9999 BKN200 QNH3009INS TEMPO 1609/1615 0400 FG VV002 BECMG 1619/1621 21008KT 9999 SCT250 QNH3007INS FM170330 VRB05KT 9999 FEW250 QNH3008INS AUTOMATED SENSOR METWATCH 1609 TIL 1614 T09/1614Z T21/1622Z
KNKX 
34nm SW 
1609/1709 VRB05KT 9999 OVC250 QNH3009INS TEMPO 1609/1615 4800 BR BKN005 BECMG 1619/1621 30008KT 9999 SCT250 QNH3008INS FM170330 VRB05KT 9999 FEW250 QNH3008INS T11/1614Z T24/1622Z
NOTAMs
Click for the latest NOTAMs
NOTAMs are issued by the DoD/FAA and will open in a separate window not controlled by AirNav.

 

 
 

Would you like to see your business listed on this page?

 If your business provides an interesting product or service to pilots, flight crews, aircraft, or users of the Warner Springs Gliderport, you should consider listing it here.  To start the listing process, click on the button below
 
Add a business
 

Other Pages about Warner Springs Gliderport

www.agcsc.org/warner_springs_info.html
 
Update a link
 
Copyright © AirNav, LLC. All rights reserved. Privacy Policy  Contact